Time;durP1;ratioP1;P1;durP2;ratioP2;P2;SDS_P1;SDS_P2;PMS_P1;PMS_P2;Temp;Humidity;BMP_temperature;BMP_pressure;BME280_temperature;BME280_humidity;BME280_pressure;Samples;Min_cycle;Max_cycle;Signal;HPM_P1;HPM_P2
2023/10/03 00:02:01;;;;;;;9.00;5.07;;;;;;;-141.97;46.04;47342.25;4986272;28;20235;-85
2023/10/03 00:04:27;;;;;;;11.23;5.80;;;;;;;-141.97;45.84;47394.16;4989983;28;20251;-86
2023/10/03 00:06:52;;;;;;;11.53;5.70;;;;;;;-141.97;45.70;47586.34;4991196;28;20625;-86
2023/10/03 00:09:18;;;;;;;10.73;5.67;;;;;;;-141.97;45.91;47373.00;5005520;28;20164;-86
2023/10/03 00:11:44;;;;;;;11.17;5.37;;;;;;;-141.97;46.06;47444.13;4975205;28;20176;-87
2023/10/03 00:14:11;;;;;;;12.97;5.43;;;;;;;-141.97;46.36;47526.75;4973800;28;20168;-87
2023/10/03 00:16:37;;;;;;;11.70;5.43;;;;;;;-141.97;46.54;47428.75;4978693;28;20176;-86
2023/10/03 00:19:03;;;;;;;10.70;4.90;;;;;;;-141.97;46.30;47496.00;5005192;28;20274;-86
2023/10/03 00:21:28;;;;;;;9.77;5.10;;;;;;;-141.97;46.25;47446.03;4979076;28;20172;-84
2023/10/03 00:23:54;;;;;;;8.60;5.47;;;;;;;-141.97;46.70;47649.78;4973143;28;20176;-86
2023/10/03 00:26:22;;;;;;;9.43;5.33;;;;;;;-141.97;46.45;47622.88;4973389;28;20184;-86
2023/10/03 00:28:48;;;;;;;13.93;5.70;;;;;;;-141.97;46.57;47342.25;4970978;28;20314;-86
2023/10/03 00:31:13;;;;;;;14.20;5.30;;;;;;;-141.97;47.03;47676.69;4972990;28;20168;-86
2023/10/03 00:33:41;;;;;;;11.30;5.60;;;;;;;-141.97;47.04;47438.34;4971416;28;20180;-86
2023/10/03 00:36:25;;;;;;;10.93;5.33;;;;;;;-141.97;47.14;47549.84;4972494;28;20173;-86
2023/10/03 00:38:51;;;;;;;9.97;5.23;;;;;;;-141.97;47.25;47532.53;4971758;28;20199;-83
2023/10/03 00:41:19;;;;;;;9.43;5.60;;;;;;;-141.97;47.28;47417.22;4972419;28;20175;-85
2023/10/03 00:43:54;;;;;;;11.33;5.53;;;;;;;-141.97;47.83;47346.09;4972176;28;20665;-85
2023/10/03 00:46:21;;;;;;;11.30;5.60;;;;;;;-141.97;48.09;47411.44;4970995;28;20651;-85
2023/10/03 00:48:47;;;;;;;11.67;6.03;;;;;;;-141.97;47.98;47505.63;4972198;28;20176;-86
2023/10/03 00:51:14;;;;;;;12.63;6.03;;;;;;;-141.97;48.03;47382.63;4962948;28;20239;-86
2023/10/03 00:53:40;;;;;;;11.30;5.90;;;;;;;-141.97;48.23;47653.63;4970940;28;20191;-86
2023/10/03 00:56:11;;;;;;;12.20;5.83;;;;;;;-141.97;48.89;47611.34;4971136;28;20176;-88
2023/10/03 00:58:37;;;;;;;11.83;5.60;;;;;;;-141.97;49.05;47351.88;4970692;28;20682;-87
2023/10/03 01:01:03;;;;;;;11.50;5.67;;;;;;;-141.97;49.08;47428.75;4972441;28;20259;-87
2023/10/03 01:03:37;;;;;;;13.57;6.40;;;;;;;-141.97;49.24;47503.69;4971631;28;20180;-84
2023/10/03 01:06:10;;;;;;;10.53;5.83;;;;;;;-141.97;49.44;47471.03;4970797;28;20172;-85
2023/10/03 01:08:41;;;;;;;12.13;5.93;;;;;;;-141.97;49.39;47526.75;4971509;28;20182;-85
2023/10/03 01:11:13;;;;;;;13.47;5.83;;;;;;;-141.97;49.71;47530.59;4974325;28;20183;-85
2023/10/03 01:13:39;;;;;;;13.73;6.50;;;;;;;-141.97;50.06;47546.00;4978974;28;20160;-84
2023/10/03 01:16:05;;;;;;;12.53;6.07;;;;;;;-141.97;50.10;47369.16;4977068;28;20164;-84
2023/10/03 01:18:32;;;;;;;13.27;6.30;;;;;;;-141.97;50.17;47626.72;4978041;28;20203;-85
2023/10/03 01:21:04;;;;;;;11.33;5.97;;;;;;;-141.97;50.31;47546.00;4973231;28;20277;-85
2023/10/03 01:23:39;;;;;;;11.63;6.57;;;;;;;-141.97;50.35;47517.16;4971457;28;20168;-84
2023/10/03 01:26:05;;;;;;;13.20;6.37;;;;;;;-141.97;50.49;47380.69;4972101;28;20164;-83
2023/10/03 01:28:30;;;;;;;12.67;6.63;;;;;;;-141.97;50.54;47682.47;4971665;28;20652;-84
2023/10/03 01:30:56;;;;;;;14.60;8.03;;;;;;;-141.97;50.73;47670.91;4971888;28;20172;-83
2023/10/03 01:33:26;;;;;;;11.30;6.20;;;;;;;-141.97;50.53;47449.88;4970727;28;20604;-83
2023/10/03 01:35:55;;;;;;;12.80;6.53;;;;;;;-141.97;50.58;47398.00;4972385;28;20692;-83
2023/10/03 01:38:22;;;;;;;10.73;5.83;;;;;;;-141.97;50.41;47513.31;4980536;28;20255;-82
2023/10/03 01:40:57;;;;;;;19.33;7.17;;;;;;;-141.97;50.76;47499.84;4986892;28;20184;-82
2023/10/03 01:43:22;;;;;;;17.30;6.70;;;;;;;-141.97;50.72;47526.75;4971135;28;20230;-82
2023/10/03 01:45:49;;;;;;;14.57;5.90;;;;;;;-141.97;50.95;47511.38;4971138;28;20174;-82
2023/10/03 01:48:16;;;;;;;16.40;5.63;;;;;;;-141.97;51.10;47651.69;4970008;28;20187;-82
2023/10/03 01:50:44;;;;;;;14.33;6.70;;;;;;;-141.97;50.98;47521.00;4972946;28;20916;-83
2023/10/03 01:53:11;;;;;;;13.60;6.43;;;;;;;-141.97;51.69;47515.22;4963880;28;20239;-82
2023/10/03 01:55:37;;;;;;;11.50;5.77;;;;;;;-141.97;51.87;47530.59;4974029;28;20171;-82
2023/10/03 01:58:03;;;;;;;15.20;6.60;;;;;;;-141.97;52.20;47469.09;4975116;28;20215;-84
2023/10/03 02:00:30;;;;;;;14.47;6.00;;;;;;;-141.97;52.42;47411.44;4975700;28;20172;-84
2023/10/03 02:03:12;;;;;;;10.20;5.13;;;;;;;-141.97;52.25;47432.59;4975129;28;20231;-82
2023/10/03 02:05:44;;;;;;;11.90;5.50;;;;;;;-141.97;52.29;47519.06;4975379;28;20164;-84
2023/10/03 02:08:17;;;;;;;12.90;5.57;;;;;;;-141.97;52.40;47657.47;4974889;28;20163;-84
2023/10/03 02:10:48;;;;;;;14.00;5.80;;;;;;;-141.97;52.98;47453.72;4973505;28;20175;-85
2023/10/03 02:13:14;;;;;;;14.20;5.93;;;;;;;-141.97;53.33;47453.72;4974996;28;20184;-83
2023/10/03 02:15:52;;;;;;;12.63;5.37;;;;;;;-141.97;53.67;47469.09;4973610;28;20648;-83
2023/10/03 02:18:19;;;;;;;13.93;6.37;;;;;;;-141.97;53.19;47426.81;4975098;28;20568;-84
2023/10/03 02:20:59;;;;;;;15.63;6.80;;;;;;;-141.97;53.21;47517.16;4973692;28;20172;-87
2023/10/03 02:23:25;;;;;;;17.17;6.73;;;;;;;-141.97;53.18;47509.47;4973206;28;20215;-86
2023/10/03 02:26:10;;;;;;;13.23;5.97;;;;;;;-141.97;53.01;47467.19;4973576;28;20315;-86
2023/10/03 02:28:36;;;;;;;14.80;6.23;;;;;;;-141.97;53.31;47476.78;4975769;28;20242;-88
2023/10/03 02:31:07;;;;;;;20.27;8.37;;;;;;;-141.97;53.05;47538.28;4974817;28;20175;-85
2023/10/03 02:33:32;;;;;;;20.33;6.20;;;;;;;-141.97;53.53;47494.09;4972440;28;20215;-84
2023/10/03 02:35:58;;;;;;;14.20;5.97;;;;;;;-141.97;53.58;47451.81;4973544;28;20263;-84
2023/10/03 02:41:19;;;;;;;13.13;6.33;;;;;;;-141.97;53.88;47613.25;4952594;28;20196;-84
2023/10/03 02:43:46;;;;;;;15.73;6.07;;;;;;;-141.97;54.34;47488.31;4953047;29;20208;-84
2023/10/03 02:46:12;;;;;;;10.93;5.97;;;;;;;-141.97;53.84;47676.69;4952768;29;20208;-84
2023/10/03 02:48:38;;;;;;;14.80;6.97;;;;;;;-141.97;54.42;47432.59;4952996;29;20172;-85
2023/10/03 02:51:05;;;;;;;13.67;6.90;;;;;;;-141.97;54.60;47430.66;4943187;28;20626;-84
2023/10/03 02:53:31;;;;;;;12.53;6.30;;;;;;;-141.97;55.12;47538.28;4937014;29;20188;-84
2023/10/03 02:55:58;;;;;;;20.13;6.93;;;;;;;-141.97;55.49;47655.53;4953081;29;20165;-85
2023/10/03 02:58:24;;;;;;;15.27;7.07;;;;;;;-141.97;55.90;47594.03;4936804;29;20692;-86
2023/10/03 03:00:53;;;;;;;15.27;7.23;;;;;;;-141.97;55.76;47388.38;4944444;28;20640;-83
2023/10/03 03:03:19;;;;;;;14.77;6.30;;;;;;;-141.97;55.29;47432.59;4971262;28;20175;-83
2023/10/03 03:05:46;;;;;;;15.27;7.27;;;;;;;-141.97;55.36;47592.13;4955751;28;20195;-85
2023/10/03 03:10:55;;;;;;;21.77;7.70;;;;;;;-141.97;55.55;47599.81;4964471;28;20208;-83
2023/10/03 03:13:24;;;;;;;20.43;8.17;;;;;;;-141.97;55.34;47517.16;4953220;29;20315;-83
2023/10/03 03:15:56;;;;;;;17.80;7.30;;;;;;;-141.97;55.29;47438.34;4952528;29;20296;-84
2023/10/03 03:18:23;;;;;;;16.70;7.90;;;;;;;-141.97;55.26;47453.72;4969908;28;20222;-85
2023/10/03 03:21:09;;;;;;;13.57;6.60;;;;;;;-141.97;55.36;47569.06;4985331;28;20160;-84
2023/10/03 03:23:36;;;;;;;19.80;7.30;;;;;;;-141.97;56.31;47517.16;4997202;28;20164;-85
2023/10/03 03:28:59;;;;;;;14.47;7.03;;;;;;;-141.97;56.75;47499.84;4956489;29;20288;-83
2023/10/03 03:31:31;;;;;;;13.43;6.30;;;;;;;-141.97;57.16;47426.81;4953349;29;20184;-82
2023/10/03 03:33:57;;;;;;;12.97;6.40;;;;;;;-141.97;56.76;47632.47;4936572;29;20193;-84
2023/10/03 03:36:29;;;;;;;15.97;6.60;;;;;;;-141.97;57.54;47540.22;4933153;29;20177;-84
2023/10/03 03:38:56;;;;;;;15.83;6.60;;;;;;;-141.97;57.89;47534.44;4932474;29;20236;-83
2023/10/03 03:41:21;;;;;;;17.90;6.80;;;;;;;-141.97;57.91;47530.59;4932258;29;20201;-82
2023/10/03 03:43:48;;;;;;;20.50;11.80;;;;;;;-141.97;58.15;47670.91;4933070;29;20185;-84
2023/10/03 03:46:14;;;;;;;19.30;10.00;;;;;;;-141.97;58.39;47509.47;4933156;29;20225;-83
2023/10/03 03:48:40;;;;;;;16.47;7.83;;;;;;;-141.97;58.28;47544.06;4916756;29;20204;-84
2023/10/03 03:51:07;;;;;;;12.60;6.57;;;;;;;-141.97;58.33;47522.91;4924415;28;20185;-83
2023/10/03 03:53:33;;;;;;;17.53;7.40;;;;;;;-141.97;58.66;47549.84;4933337;29;20220;-83
2023/10/03 03:56:07;;;;;;;13.80;6.57;;;;;;;-141.97;59.00;47530.59;4933954;29;20282;-83
2023/10/03 03:58:37;;;;;;;16.47;7.00;;;;;;;-141.97;60.44;47607.50;4917221;29;20635;-83
2023/10/03 04:01:10;;;;;;;14.80;7.03;;;;;;;-141.97;61.18;47530.59;4932960;29;20660;-84
2023/10/03 04:03:36;;;;;;;16.50;6.50;;;;;;;-141.97;60.95;47467.19;4933100;29;20378;-83
2023/10/03 04:06:02;;;;;;;16.23;6.97;;;;;;;-141.97;61.02;47474.88;4965407;28;20664;-83
2023/10/03 04:08:27;;;;;;;13.13;7.00;;;;;;;-141.97;61.27;47680.53;4972370;28;20584;-83
2023/10/03 04:10:54;;;;;;;14.67;7.00;;;;;;;-141.97;61.08;47632.47;4970706;28;20175;-82
2023/10/03 04:13:21;;;;;;;13.37;6.83;;;;;;;-141.97;60.44;47457.56;4972648;28;20191;-84
2023/10/03 04:15:47;;;;;;;17.53;7.73;;;;;;;-141.97;60.53;47661.31;4982150;28;20160;-85
2023/10/03 04:18:15;;;;;;;15.97;7.07;;;;;;;-141.97;60.38;47519.06;4981681;28;20673;-84
2023/10/03 04:20:44;;;;;;;18.03;7.80;;;;;;;-141.97;59.95;47538.28;4973743;28;20171;-84
2023/10/03 04:23:11;;;;;;;17.37;8.50;;;;;;;-141.97;59.34;47540.22;4972745;28;20223;-82
2023/10/03 04:29:52;;;;;;;16.80;8.27;;;;;;;-141.97;60.77;47501.78;5128277;27;20536;-83
2023/10/03 04:32:17;;;;;;;19.70;9.33;;;;;;;-141.97;60.62;47569.06;5110868;28;20590;-80
2023/10/03 04:34:42;;;;;;;19.17;10.00;;;;;;;-141.97;60.50;47551.75;5108811;28;20168;-81
2023/10/03 04:37:08;;;;;;;18.13;8.97;;;;;;;-141.97;60.06;47540.22;5118614;28;20163;-83
2023/10/03 04:39:35;;;;;;;25.70;13.80;;;;;;;-141.97;59.63;47561.38;5112598;28;20167;-83
2023/10/03 04:42:00;;;;;;;29.03;15.23;;;;;;;-141.97;59.61;47490.25;5109406;28;20172;-82
2023/10/03 04:44:26;;;;;;;21.13;11.10;;;;;;;-141.97;59.72;47530.59;5109487;28;20533;-83
2023/10/03 04:46:51;;;;;;;26.33;12.27;;;;;;;-141.97;59.57;47522.91;5136015;28;20168;-84
2023/10/03 04:49:16;;;;;;;29.80;12.50;;;;;;;-141.97;59.79;47513.31;5120123;28;20205;-82
2023/10/03 04:51:45;;;;;;;22.10;10.37;;;;;;;-141.97;60.09;47555.59;5092116;28;20236;-82
2023/10/03 04:54:11;;;;;;;24.67;9.50;;;;;;;-141.97;59.84;47461.41;5065864;28;20226;-83
2023/10/03 04:56:36;;;;;;;20.30;8.90;;;;;;;-141.97;59.77;47519.06;5067711;28;20248;-85
2023/10/03 04:59:03;;;;;;;28.57;9.50;;;;;;;-141.97;59.52;47497.94;5068266;28;20330;-89
2023/10/03 05:01:28;;;;;;;34.93;11.30;;;;;;;-141.97;59.15;47496.00;5100392;28;20230;-80
2023/10/03 05:03:54;;;;;;;23.27;11.00;;;;;;;-141.97;59.41;47540.22;5068311;28;20161;-84
2023/10/03 05:06:21;;;;;;;16.43;9.73;;;;;;;-141.97;59.66;47544.06;5066419;28;20605;-85
2023/10/03 05:08:46;;;;;;;21.50;8.77;;;;;;;-141.97;60.06;47513.31;5067589;28;20238;-84
2023/10/03 05:11:13;;;;;;;23.20;10.23;;;;;;;-141.97;60.07;47540.22;5067820;28;20326;-84
2023/10/03 05:13:43;;;;;;;19.43;10.83;;;;;;;-141.97;59.91;47509.47;5069806;28;20153;-86
2023/10/03 05:16:09;;;;;;;17.37;8.77;;;;;;;-141.97;59.92;47513.31;5075630;28;20187;-81
2023/10/03 05:18:34;;;;;;;19.60;9.40;;;;;;;-141.97;59.70;47515.22;5085004;28;20649;-83
2023/10/03 05:21:00;;;;;;;20.60;9.20;;;;;;;-141.97;60.15;47526.75;5071143;28;20180;-85
2023/10/03 05:23:25;;;;;;;28.47;16.33;;;;;;;-141.97;60.35;47619.03;5067850;28;20180;-85
2023/10/03 05:25:51;;;;;;;21.57;10.80;;;;;;;-141.97;60.13;47522.91;5066748;28;20173;-84
2023/10/03 05:28:16;;;;;;;21.23;10.20;;;;;;;-141.97;59.85;47638.25;5066221;28;20231;-84
2023/10/03 05:30:42;;;;;;;29.50;9.13;;;;;;;-141.97;59.49;47532.53;5066445;28;20180;-84
2023/10/03 05:33:07;;;;;;;17.63;9.27;;;;;;;-141.97;59.69;47686.31;5066293;28;20338;-84
2023/10/03 05:35:33;;;;;;;26.50;10.00;;;;;;;-141.97;60.40;47534.44;5099825;28;20626;-85
2023/10/03 05:37:59;;;;;;;19.87;9.53;;;;;;;-141.97;60.23;47465.25;5065556;28;20181;-85
2023/10/03 05:40:24;;;;;;;28.00;11.83;;;;;;;-141.97;59.89;47619.03;5056972;28;20236;-85
2023/10/03 05:42:50;;;;;;;27.57;12.00;;;;;;;-141.97;59.26;47682.47;5052093;28;20597;-85
2023/10/03 05:45:17;;;;;;;23.37;11.13;;;;;;;-141.97;58.94;47511.38;5053271;28;20165;-84
2023/10/03 05:47:47;;;;;;;26.57;9.73;;;;;;;-141.97;58.09;47430.66;5053462;28;20633;-84
2023/10/03 05:50:17;;;;;;;29.23;10.03;;;;;;;-141.97;58.05;47676.69;5052228;28;20177;-84
2023/10/03 05:52:46;;;;;;;27.17;9.40;;;;;;;-141.97;57.95;47569.06;5042140;28;20314;-84
2023/10/03 05:55:13;;;;;;;23.83;9.30;;;;;;;-141.97;57.86;47619.03;5064398;28;20177;-84
2023/10/03 05:57:41;;;;;;;20.50;8.30;;;;;;;-141.97;57.55;47490.25;5075742;28;20183;-85
2023/10/03 06:00:13;;;;;;;24.70;8.77;;;;;;;-141.97;57.83;47494.09;5070001;28;20173;-84
2023/10/03 06:02:39;;;;;;;19.13;8.43;;;;;;;-141.97;58.11;47465.25;5054030;28;20200;-82
2023/10/03 06:05:08;;;;;;;25.30;9.53;;;;;;;-141.97;58.13;47522.91;5053873;28;20161;-85
2023/10/03 06:07:36;;;;;;;33.40;11.07;;;;;;;-141.97;57.89;47522.91;5097292;28;20768;-87
2023/10/03 06:10:04;;;;;;;24.40;9.70;;;;;;;-141.97;57.41;47669.00;5066116;28;20677;-86
2023/10/03 06:12:30;;;;;;;21.23;9.83;;;;;;;-141.97;58.01;47503.69;5055583;28;20203;-87
2023/10/03 06:14:55;;;;;;;23.00;9.70;;;;;;;-141.97;58.44;47607.50;5052794;28;20181;-85
2023/10/03 06:17:21;;;;;;;20.27;9.67;;;;;;;-141.97;57.78;47549.84;5052757;28;20247;-86
2023/10/03 06:19:52;;;;;;;26.17;11.47;;;;;;;-141.97;57.39;47471.03;5055257;28;20231;-85
2023/10/03 06:22:17;;;;;;;28.17;11.93;;;;;;;-141.97;56.49;47471.03;5071494;28;20389;-89
2023/10/03 06:24:43;;;;;;;50.40;24.07;;;;;;;-141.97;56.05;47505.63;5065178;28;20236;-87
2023/10/03 06:27:10;;;;;;;61.20;25.67;;;;;;;-141.97;55.67;47607.50;5061763;28;20183;-89
2023/10/03 06:29:38;;;;;;;48.90;26.00;;;;;;;-141.97;55.44;47526.75;5060027;28;20224;-86
2023/10/03 06:32:04;;;;;;;48.83;24.80;;;;;;;-141.97;54.77;47669.00;5052412;28;20173;-87
2023/10/03 06:34:29;;;;;;;33.93;14.67;;;;;;;-141.97;54.92;47453.72;5052522;28;20162;-90
2023/10/03 06:36:55;;;;;;;25.17;12.27;;;;;;;-141.97;55.00;47559.44;5052103;28;20335;-90
2023/10/03 06:39:20;;;;;;;25.90;11.47;;;;;;;-141.97;54.51;47522.91;5053245;28;20522;-88
2023/10/03 06:41:47;;;;;;;22.67;10.60;;;;;;;-141.97;54.41;47672.84;5052636;28;20712;-89
2023/10/03 06:44:12;;;;;;;23.33;10.87;;;;;;;-141.97;55.44;47351.88;5051477;28;20180;-86
2023/10/03 06:46:38;;;;;;;23.63;10.33;;;;;;;-141.97;55.13;47361.47;5052498;28;20165;-90
2023/10/03 06:49:04;;;;;;;22.27;10.13;;;;;;;-141.97;56.24;47338.41;5052146;28;20232;-89
2023/10/03 06:51:29;;;;;;;27.50;11.33;;;;;;;-141.97;55.60;47628.63;5051938;28;20208;-89
2023/10/03 06:53:55;;;;;;;25.00;11.20;;;;;;;-141.97;54.77;47509.47;5043808;28;20347;-88
2023/10/03 06:56:22;;;;;;;20.23;10.50;;;;;;;-141.97;55.07;47645.94;5064028;28;20257;-90
2023/10/03 06:58:48;;;;;;;21.03;10.03;;;;;;;-141.97;55.57;47380.69;5053286;28;20668;-88
2023/10/03 07:01:14;;;;;;;25.17;9.83;;;;;;;-141.97;55.12;47569.06;5056617;28;20192;-88
2023/10/03 07:03:58;;;;;;;17.20;9.70;;;;;;;-141.97;55.80;47617.09;5057910;28;20185;-91
2023/10/03 07:06:23;;;;;;;21.97;10.23;;;;;;;-141.97;53.90;47374.94;5058447;28;20181;-86
2023/10/03 07:08:49;;;;;;;23.17;10.10;;;;;;;-141.97;52.47;47569.06;5041239;28;20624;-89
2023/10/03 07:11:16;;;;;;;28.47;9.77;;;;;;;-141.97;52.27;47586.34;5052529;28;20605;-92
2023/10/03 07:13:44;;;;;;;25.03;10.27;;;;;;;-141.97;51.06;47521.00;5052162;28;20277;-90
2023/10/03 07:16:11;;;;;;;26.63;10.20;;;;;;;-141.97;49.80;47615.19;5056237;28;20181;-88
2023/10/03 07:18:37;;;;;;;23.83;9.87;;;;;;;-141.97;49.65;47519.06;5070028;28;20165;-85
2023/10/03 07:21:03;;;;;;;19.90;9.17;;;;;;;-141.97;49.08;47588.28;5069606;28;20252;-88
2023/10/03 07:23:29;;;;;;;18.17;8.30;;;;;;;-141.97;48.95;47530.59;5068908;28;20162;-86
2023/10/03 07:25:55;;;;;;;22.23;8.73;;;;;;;-141.97;48.13;47584.44;5052223;28;20245;-88
2023/10/03 07:28:20;;;;;;;20.20;8.40;;;;;;;-141.97;47.10;47649.78;5050992;28;20720;-92
2023/10/03 07:30:46;;;;;;;18.07;7.93;;;;;;;-141.97;46.76;47634.41;5050265;28;20177;-85
2023/10/03 07:33:14;;;;;;;27.47;9.10;;;;;;;-141.97;46.45;47524.84;5051984;28;20165;-87
2023/10/03 07:35:41;;;;;;;20.83;8.50;;;;;;;-141.97;46.53;47434.50;5052821;28;20176;-88
2023/10/03 07:38:12;;;;;;;17.63;8.50;;;;;;;-141.97;45.62;47503.69;5056454;28;20164;-87
2023/10/03 07:40:41;;;;;;;16.33;8.27;;;;;;;-141.97;46.80;47413.38;5058168;28;20165;-87
2023/10/03 07:43:10;;;;;;;17.97;8.20;;;;;;;-141.97;45.51;47455.66;5053668;28;20168;-87
2023/10/03 07:45:45;;;;;;;17.00;8.30;;;;;;;-141.97;44.71;47365.31;5051408;28;20170;-89
2023/10/03 07:48:11;;;;;;;14.20;8.00;;;;;;;-141.97;44.43;47230.78;5083991;28;20192;-88
2023/10/03 07:50:43;;;;;;;17.53;8.67;;;;;;;-141.97;44.18;47469.09;5085764;28;20184;-88
2023/10/03 07:53:12;;;;;;;16.47;8.13;;;;;;;-141.97;43.95;47620.94;5053350;28;20173;-88
2023/10/03 07:55:44;;;;;;;15.17;8.17;;;;;;;-141.97;42.77;47607.50;5051210;28;20232;-90
2023/10/03 07:58:19;;;;;;;14.50;7.70;;;;;;;-141.97;41.80;47334.56;5049529;28;20181;-89
2023/10/03 08:00:50;;;;;;;14.57;8.00;;;;;;;-141.97;41.45;47492.16;5050308;28;20284;-89
2023/10/03 08:03:16;;;;;;;17.47;8.03;;;;;;;-141.97;41.82;47561.38;5050908;28;20193;-88
2023/10/03 08:05:41;;;;;;;15.67;7.80;;;;;;;-141.97;41.82;47572.91;5051117;28;20268;-89
2023/10/03 08:08:08;;;;;;;15.97;7.67;;;;;;;-141.97;41.46;47634.41;5052564;28;20197;-89
2023/10/03 08:10:33;;;;;;;13.60;7.40;;;;;;;-141.97;40.22;47359.56;5046720;28;20233;-91
2023/10/03 08:12:59;;;;;;;12.67;7.10;;;;;;;-141.97;39.97;47365.31;5052644;28;20183;-90
2023/10/03 08:15:31;;;;;;;14.83;7.50;;;;;;;-141.97;40.35;47471.03;5051711;28;20177;-90
2023/10/03 08:17:58;;;;;;;19.53;7.80;;;;;;;-141.97;42.23;47594.03;5070807;28;20181;-88
2023/10/03 08:20:24;;;;;;;13.30;7.43;;;;;;;-141.97;40.46;47442.19;5074458;28;20173;-87
2023/10/03 08:22:52;;;;;;;16.00;7.40;;;;;;;-141.97;40.34;47421.06;5065316;28;20177;-90
2023/10/03 08:25:22;;;;;;;11.90;7.13;;;;;;;-141.97;39.66;47421.06;5051897;28;20177;-91
2023/10/03 08:27:52;;;;;;;14.03;7.53;;;;;;;-141.97;39.42;47361.47;5050036;28;20229;-89
2023/10/03 08:30:29;;;;;;;13.63;6.73;;;;;;;-141.97;38.43;47453.72;5060840;28;20180;-91
2023/10/03 08:33:00;;;;;;;11.90;7.13;;;;;;;-141.97;38.03;47465.25;5105779;28;20196;-89
2023/10/03 08:35:35;;;;;;;14.73;6.83;;;;;;;-141.97;37.90;47355.72;5106843;28;20205;-87
2023/10/03 08:38:05;;;;;;;14.43;6.93;;;;;;;-141.97;38.19;47334.56;5070836;28;20163;-88
2023/10/03 08:40:36;;;;;;;12.27;7.10;;;;;;;-141.97;37.90;47578.66;5073143;28;20185;-90
2023/10/03 08:43:05;;;;;;;14.63;6.87;;;;;;;-141.97;37.40;47474.88;5066814;28;20169;-89
2023/10/03 08:45:35;;;;;;;14.87;7.77;;;;;;;-141.97;37.43;47257.69;5053867;28;20545;-89
2023/10/03 08:48:05;;;;;;;14.33;7.10;;;;;;;-141.97;37.34;47242.31;5052936;28;20208;-87
2023/10/03 08:50:37;;;;;;;12.40;7.30;;;;;;;-141.97;36.60;47522.91;5087019;28;20267;-87
2023/10/03 08:53:13;;;;;;;15.27;7.27;;;;;;;-141.97;36.08;47536.38;5051727;28;20158;-89
2023/10/03 08:55:46;;;;;;;11.80;7.20;;;;;;;-141.97;35.35;47428.75;5049749;28;20173;-86
2023/10/03 08:58:13;;;;;;;13.37;6.90;;;;;;;-141.97;35.87;47330.72;5083322;28;20584;-90
2023/10/03 09:00:58;;;;;;;15.87;7.30;;;;;;;-141.97;35.63;47622.88;5053833;28;20614;-90
2023/10/03 09:03:25;;;;;;;17.73;6.67;;;;;;;-141.97;34.95;47569.06;5051785;28;20173;-85
2023/10/03 09:05:51;;;;;;;15.43;7.47;;;;;;;-141.97;34.91;47411.44;5056732;28;20188;-87
2023/10/03 09:08:17;;;;;;;11.83;6.90;;;;;;;-141.97;34.45;47424.91;5050764;28;20755;-88
2023/10/03 09:10:51;;;;;;;16.33;7.30;;;;;;;-141.97;34.82;47501.78;5049261;28;20177;-87
2023/10/03 09:13:30;;;;;;;14.00;6.60;;;;;;;-141.97;34.33;47380.69;5051417;28;20176;-87
2023/10/03 09:16:00;;;;;;;12.33;7.10;;;;;;;-141.97;33.52;47419.13;5052967;28;20162;-87
2023/10/03 09:18:28;;;;;;;14.73;7.00;;;;;;;-141.97;34.36;47426.81;5064552;28;20213;-87
2023/10/03 09:21:01;;;;;;;15.10;7.27;;;;;;;-141.97;34.67;47142.38;5053641;28;20177;-87
2023/10/03 09:23:59;;;;;;;13.47;6.97;;;;;;;-141.97;34.62;47411.44;5054298;28;20165;-87
2023/10/03 09:26:36;;;;;;;13.03;6.43;;;;;;;-141.97;34.16;47524.84;5086613;28;20174;-87
2023/10/03 09:29:08;;;;;;;10.93;6.43;;;;;;;-141.97;33.55;47246.16;5053596;28;20221;-88
2023/10/03 09:31:33;;;;;;;12.57;6.17;;;;;;;-141.97;33.43;47553.69;5052390;28;20173;-87
2023/10/03 09:34:02;;;;;;;14.27;6.60;;;;;;;-141.97;33.46;47390.31;5054432;28;20161;-87
2023/10/03 09:36:28;;;;;;;15.37;6.47;;;;;;;-141.97;33.28;47136.63;5062315;28;20174;-87
2023/10/03 09:38:55;;;;;;;16.63;6.73;;;;;;;-141.97;32.87;47442.19;5056778;28;20166;-87
2023/10/03 09:41:21;;;;;;;15.77;6.57;;;;;;;-141.97;32.56;47584.44;5056129;28;20559;-86
2023/10/03 09:43:54;;;;;;;10.57;6.37;;;;;;;-141.97;32.83;47271.16;5061069;28;20170;-85
2023/10/03 09:46:52;;;;;;;12.53;6.40;;;;;;;-141.97;32.82;47534.44;5058395;28;20177;-85
2023/10/03 09:50:09;;;;;;;15.17;7.10;;;;;;;-141.97;33.15;47326.88;5054868;28;20196;-87
2023/10/03 09:52:37;;;;;;;12.37;6.53;;;;;;;-141.97;33.46;47592.13;5000343;28;20201;-87
2023/10/03 09:55:26;;;;;;;12.13;7.10;;;;;;;-141.97;32.96;47232.72;5028746;28;20187;-86
2023/10/03 09:58:04;;;;;;;12.37;6.77;;;;;;;-141.97;32.53;47605.56;5048270;28;20173;-86
2023/10/03 10:00:40;;;;;;;13.17;6.70;;;;;;;-141.97;32.33;47501.78;5016873;28;20264;-86
2023/10/03 10:03:13;;;;;;;14.80;7.47;;;;;;;-141.97;32.33;47457.56;5039414;28;20324;-87
2023/10/03 10:05:50;;;;;;;12.43;6.97;;;;;;;-141.97;32.50;47619.03;5050243;28;20184;-88
2023/10/03 10:08:32;;;;;;;15.17;7.20;;;;;;;-141.97;33.17;47415.28;5032830;28;20674;-86
2023/10/03 10:11:02;;;;;;;15.60;7.63;;;;;;;-141.97;32.94;47190.44;5030422;28;20178;-89
2023/10/03 10:13:34;;;;;;;15.48;7.88;;;;;;;-141.97;32.77;47351.88;5016359;28;20174;-86
2023/10/03 10:16:11;;;;;;;15.20;7.15;;;;;;;-141.97;32.57;47515.22;5032834;28;20203;-87
2023/10/03 10:18:46;;;;;;;15.20;7.50;;;;;;;-141.97;31.53;47396.06;5032951;28;20164;-87
2023/10/03 10:21:20;;;;;;;14.68;8.05;;;;;;;-141.97;31.75;47426.81;5046161;28;20252;-86
2023/10/03 10:24:18;;;;;;;16.30;8.30;;;;;;;-141.97;32.68;47398.00;5069405;28;20174;-87
2023/10/03 10:26:59;;;;;;;13.90;7.57;;;;;;;-141.97;32.56;47559.44;5068539;28;20279;-87
2023/10/03 10:29:26;;;;;;;14.35;7.68;;;;;;;-141.97;32.19;47323.03;5052738;28;20379;-86
2023/10/03 10:31:58;;;;;;;15.90;7.55;;;;;;;-141.97;32.48;47242.31;5051654;28;20273;-87
2023/10/03 10:34:27;;;;;;;14.07;7.47;;;;;;;-141.97;31.92;47409.53;5053659;28;20204;-87
2023/10/03 10:37:09;;;;;;;13.23;7.47;;;;;;;-141.97;31.47;47392.22;5056009;28;20172;-88
2023/10/03 10:39:53;;;;;;;13.13;7.50;;;;;;;-141.97;31.24;47392.22;5061110;28;20275;-87
2023/10/03 10:42:24;;;;;;;12.20;7.63;;;;;;;-141.97;32.10;47411.44;5056681;28;20168;-91
2023/10/03 10:47:27;;;;;;;11.18;7.75;;;;;;;-141.97;31.90;47380.69;5228851;22;20244;-87
2023/10/03 10:50:00;;;;;;;12.00;6.95;;;;;;;-141.97;31.27;47380.69;5093278;28;20230;-86
2023/10/03 10:52:26;;;;;;;14.32;7.50;;;;;;;-141.97;31.41;47398.00;5083333;28;20168;-86
2023/10/03 10:54:53;;;;;;;15.85;7.68;;;;;;;-141.97;32.09;47638.25;5073762;28;20177;-87
2023/10/03 10:57:25;;;;;;;10.05;7.32;;;;;;;-141.97;31.91;47419.13;5073219;28;20171;-87
2023/10/03 10:59:52;;;;;;;14.77;7.38;;;;;;;-141.97;31.76;47615.19;5070955;28;20191;-88
2023/10/03 11:02:19;;;;;;;18.13;7.63;;;;;;;-141.97;31.99;47561.38;5072411;28;20181;-86
2023/10/03 11:04:53;;;;;;;11.98;7.85;;;;;;;-141.97;31.75;47200.03;5061804;28;20611;-86
2023/10/03 11:07:23;;;;;;;13.25;7.32;;;;;;;-141.97;31.37;47373.00;5073434;28;20183;-87
2023/10/03 11:09:50;;;;;;;15.50;8.00;;;;;;;-141.97;31.77;47246.16;5076113;28;20290;-86
2023/10/03 11:12:25;;;;;;;12.82;7.72;;;;;;;-141.97;32.15;47459.50;5077744;28;20195;-86
2023/10/03 11:14:54;;;;;;;13.23;7.53;;;;;;;-141.97;31.86;47253.84;5093818;28;20162;-87
2023/10/03 11:17:20;;;;;;;19.40;7.82;;;;;;;-141.97;31.86;47271.16;5079585;28;20198;-85
2023/10/03 11:19:47;;;;;;;13.90;8.05;;;;;;;-141.97;32.02;47638.25;5079062;28;20172;-89
2023/10/03 11:22:13;;;;;;;11.55;7.78;;;;;;;-141.97;32.06;47128.94;5072646;28;20176;-87
2023/10/03 11:24:39;;;;;;;11.82;8.05;;;;;;;-141.97;32.24;47353.78;5072998;28;20486;-87
2023/10/03 11:27:05;;;;;;;13.15;7.35;;;;;;;-141.97;32.13;47401.84;5073263;28;20219;-86
2023/10/03 11:29:48;;;;;;;10.88;7.63;;;;;;;-141.97;32.65;47290.38;5074885;28;20559;-93
2023/10/03 11:32:30;;;;;;;12.77;7.65;;;;;;;-141.97;32.26;47351.88;5070493;28;20641;-85
2023/10/03 11:34:57;;;;;;;13.63;7.70;;;;;;;-141.97;32.57;47442.19;5072428;28;20188;-86